Aurora, North Carolina
Current Conditions -  °F | °C
As of 2:54 PM on Sunday 21 Dec 2014 (Local Time) from KEWN Reporting Station
Broken Clouds Broken Clouds  
Wind Chill: 45°   Ceiling: 6500
Heat Index: 49°   Visibility: 10mi
Dew Point: 36°   Wind: 9mph
Humidity: 61%   Direction: 30°NNE
Pressure: 30.24"   Gusts: NA
Location:  35.31°N, 76.79°W
Report Text: KEWN 211954Z 03008KT 10SM BKN065 09/02 A3024 RMK AO2 SLP240 T00940022
Loading
Personal Weather Stations






























Interactive Weather Map New forecast layout! Learn more

10-Day Weather Forecast

Advertisements
Track Severe Weather on mobile